sensor_id;sensor_type;location;lat;lon;timestamp;temperature;humidity
3348;DHT22;1687;49.540;8.574;2023-12-04T00:02:14;0.50;75.80
3348;DHT22;1687;49.540;8.574;2023-12-04T00:04:40;0.40;75.50
3348;DHT22;1687;49.540;8.574;2023-12-04T00:07:05;0.30;75.50
3348;DHT22;1687;49.540;8.574;2023-12-04T00:09:31;0.30;75.70
3348;DHT22;1687;49.540;8.574;2023-12-04T00:11:57;0.30;75.70
3348;DHT22;1687;49.540;8.574;2023-12-04T00:14:22;0.30;75.80
3348;DHT22;1687;49.540;8.574;2023-12-04T00:16:48;0.20;75.60
3348;DHT22;1687;49.540;8.574;2023-12-04T00:19:14;0.20;75.60
3348;DHT22;1687;49.540;8.574;2023-12-04T00:21:40;0.10;75.60
3348;DHT22;1687;49.540;8.574;2023-12-04T00:24:05;0.10;75.80
3348;DHT22;1687;49.540;8.574;2023-12-04T00:26:31;0.10;75.70
3348;DHT22;1687;49.540;8.574;2023-12-04T00:28:57;0.10;75.70
3348;DHT22;1687;49.540;8.574;2023-12-04T00:31:22;0.00;75.60
3348;DHT22;1687;49.540;8.574;2023-12-04T00:33:48;0.00;75.50
3348;DHT22;1687;49.540;8.574;2023-12-04T00:36:14;0.00;75.70
3348;DHT22;1687;49.540;8.574;2023-12-04T00:38:40;-0.10;75.70
3348;DHT22;1687;49.540;8.574;2023-12-04T00:41:05;-0.10;75.70
3348;DHT22;1687;49.540;8.574;2023-12-04T00:43:31;-0.20;75.50
3348;DHT22;1687;49.540;8.574;2023-12-04T00:45:57;-0.20;75.50
3348;DHT22;1687;49.540;8.574;2023-12-04T00:48:22;-0.30;75.30
3348;DHT22;1687;49.540;8.574;2023-12-04T00:50:48;-0.40;75.10
3348;DHT22;1687;49.540;8.574;2023-12-04T00:53:14;-0.50;75.40
3348;DHT22;1687;49.540;8.574;2023-12-04T00:55:39;-0.50;75.60
3348;DHT22;1687;49.540;8.574;2023-12-04T00:58:05;-0.60;75.30
3348;DHT22;1687;49.540;8.574;2023-12-04T01:00:31;-0.60;75.40
3348;DHT22;1687;49.540;8.574;2023-12-04T01:02:56;-0.60;75.70
3348;DHT22;1687;49.540;8.574;2023-12-04T01:05:22;-0.70;75.50
3348;DHT22;1687;49.540;8.574;2023-12-04T01:07:48;-0.70;75.70
3348;DHT22;1687;49.540;8.574;2023-12-04T01:10:13;-0.70;75.50
3348;DHT22;1687;49.540;8.574;2023-12-04T01:12:39;-0.80;75.20
3348;DHT22;1687;49.540;8.574;2023-12-04T01:15:05;-0.80;75.40
3348;DHT22;1687;49.540;8.574;2023-12-04T01:17:31;-0.80;75.60
3348;DHT22;1687;49.540;8.574;2023-12-04T01:19:57;-0.80;76.00
3348;DHT22;1687;49.540;8.574;2023-12-04T01:22:23;-0.70;75.90
3348;DHT22;1687;49.540;8.574;2023-12-04T01:24:48;-0.70;76.00
3348;DHT22;1687;49.540;8.574;2023-12-04T01:27:14;-0.70;76.00
3348;DHT22;1687;49.540;8.574;2023-12-04T01:29:40;-0.70;75.90
3348;DHT22;1687;49.540;8.574;2023-12-04T01:32:06;-0.60;76.20
3348;DHT22;1687;49.540;8.574;2023-12-04T01:34:31;-0.60;76.10
3348;DHT22;1687;49.540;8.574;2023-12-04T01:36:57;-0.60;75.90
3348;DHT22;1687;49.540;8.574;2023-12-04T01:39:23;-0.60;76.20
3348;DHT22;1687;49.540;8.574;2023-12-04T01:41:49;-0.60;76.10
3348;DHT22;1687;49.540;8.574;2023-12-04T01:44:14;-0.70;75.90
3348;DHT22;1687;49.540;8.574;2023-12-04T01:46:41;-0.80;75.70
3348;DHT22;1687;49.540;8.574;2023-12-04T01:49:08;-0.80;76.00
3348;DHT22;1687;49.540;8.574;2023-12-04T01:51:34;-0.80;76.00
3348;DHT22;1687;49.540;8.574;2023-12-04T01:54:02;-0.80;76.10
3348;DHT22;1687;49.540;8.574;2023-12-04T01:56:29;-0.80;76.10
3348;DHT22;1687;49.540;8.574;2023-12-04T01:58:55;-0.80;76.10
3348;DHT22;1687;49.540;8.574;2023-12-04T02:01:22;-0.80;75.90
3348;DHT22;1687;49.540;8.574;2023-12-04T02:03:49;-0.90;75.80
3348;DHT22;1687;49.540;8.574;2023-12-04T02:06:16;-0.80;76.30
3348;DHT22;1687;49.540;8.574;2023-12-04T02:08:42;-0.80;76.40
3348;DHT22;1687;49.540;8.574;2023-12-04T02:11:08;-0.90;75.70
3348;DHT22;1687;49.540;8.574;2023-12-04T02:13:35;-0.90;76.10
3348;DHT22;1687;49.540;8.574;2023-12-04T02:16:03;-0.90;76.30
3348;DHT22;1687;49.540;8.574;2023-12-04T02:18:32;-0.90;76.50
3348;DHT22;1687;49.540;8.574;2023-12-04T02:21:00;-0.90;76.50
3348;DHT22;1687;49.540;8.574;2023-12-04T02:23:27;-0.90;76.50
3348;DHT22;1687;49.540;8.574;2023-12-04T02:26:05;-0.80;76.60
3348;DHT22;1687;49.540;8.574;2023-12-04T02:28:36;-0.80;76.80
3348;DHT22;1687;49.540;8.574;2023-12-04T02:31:04;-0.80;76.60
3348;DHT22;1687;49.540;8.574;2023-12-04T02:33:32;-0.90;76.20
3348;DHT22;1687;49.540;8.574;2023-12-04T02:35:59;-0.90;76.50
3348;DHT22;1687;49.540;8.574;2023-12-04T02:38:26;-0.90;76.30
3348;DHT22;1687;49.540;8.574;2023-12-04T02:40:52;-1.00;76.30
3348;DHT22;1687;49.540;8.574;2023-12-04T02:43:18;-1.00;76.70
3348;DHT22;1687;49.540;8.574;2023-12-04T02:45:44;-0.90;76.80
3348;DHT22;1687;49.540;8.574;2023-12-04T02:48:09;-0.90;76.60
3348;DHT22;1687;49.540;8.574;2023-12-04T02:50:35;-0.90;77.00
3348;DHT22;1687;49.540;8.574;2023-12-04T02:53:01;-0.90;76.70
3348;DHT22;1687;49.540;8.574;2023-12-04T02:55:27;-0.90;76.60
3348;DHT22;1687;49.540;8.574;2023-12-04T02:57:53;-0.90;76.50
3348;DHT22;1687;49.540;8.574;2023-12-04T03:00:19;-1.00;76.60
3348;DHT22;1687;49.540;8.574;2023-12-04T03:02:45;-1.10;76.50
3348;DHT22;1687;49.540;8.574;2023-12-04T03:05:11;-1.00;76.80
3348;DHT22;1687;49.540;8.574;2023-12-04T03:07:36;-1.10;76.50
3348;DHT22;1687;49.540;8.574;2023-12-04T03:10:02;-1.00;76.80
3348;DHT22;1687;49.540;8.574;2023-12-04T03:12:28;-1.10;76.80
3348;DHT22;1687;49.540;8.574;2023-12-04T03:14:54;-1.10;76.80
3348;DHT22;1687;49.540;8.574;2023-12-04T03:17:20;-1.20;76.40
3348;DHT22;1687;49.540;8.574;2023-12-04T03:19:45;-1.20;76.70
3348;DHT22;1687;49.540;8.574;2023-12-04T03:22:12;-1.20;77.10
3348;DHT22;1687;49.540;8.574;2023-12-04T03:24:38;-1.10;77.30
3348;DHT22;1687;49.540;8.574;2023-12-04T03:27:03;-1.10;77.30
3348;DHT22;1687;49.540;8.574;2023-12-04T03:29:29;-1.00;77.40
3348;DHT22;1687;49.540;8.574;2023-12-04T03:31:55;-1.00;77.40
3348;DHT22;1687;49.540;8.574;2023-12-04T03:34:20;-1.00;77.40
3348;DHT22;1687;49.540;8.574;2023-12-04T03:36:46;-0.90;77.60
3348;DHT22;1687;49.540;8.574;2023-12-04T03:39:12;-0.90;77.30
3348;DHT22;1687;49.540;8.574;2023-12-04T03:41:37;-1.00;76.90
3348;DHT22;1687;49.540;8.574;2023-12-04T03:44:03;-1.10;77.00
3348;DHT22;1687;49.540;8.574;2023-12-04T03:46:29;-1.20;76.90
3348;DHT22;1687;49.540;8.574;2023-12-04T03:48:55;-1.20;77.30
3348;DHT22;1687;49.540;8.574;2023-12-04T03:51:20;-1.20;77.40
3348;DHT22;1687;49.540;8.574;2023-12-04T03:53:46;-1.10;77.90
3348;DHT22;1687;49.540;8.574;2023-12-04T03:56:12;-1.10;77.70
3348;DHT22;1687;49.540;8.574;2023-12-04T03:58:37;-1.10;77.80
3348;DHT22;1687;49.540;8.574;2023-12-04T04:01:04;-1.20;77.20
3348;DHT22;1687;49.540;8.574;2023-12-04T04:03:29;-1.10;77.90
3348;DHT22;1687;49.540;8.574;2023-12-04T04:05:55;-1.10;77.90
3348;DHT22;1687;49.540;8.574;2023-12-04T04:08:21;-1.10;77.90
3348;DHT22;1687;49.540;8.574;2023-12-04T04:10:46;-1.10;77.90
3348;DHT22;1687;49.540;8.574;2023-12-04T04:13:12;-1.10;77.80
3348;DHT22;1687;49.540;8.574;2023-12-04T04:15:38;-1.00;78.10
3348;DHT22;1687;49.540;8.574;2023-12-04T04:18:03;-1.00;78.10
3348;DHT22;1687;49.540;8.574;2023-12-04T04:20:29;-1.00;78.00
3348;DHT22;1687;49.540;8.574;2023-12-04T04:22:55;-1.00;77.90
3348;DHT22;1687;49.540;8.574;2023-12-04T04:25:20;-1.10;77.50
3348;DHT22;1687;49.540;8.574;2023-12-04T04:27:48;-1.10;77.80
3348;DHT22;1687;49.540;8.574;2023-12-04T04:30:14;-1.10;78.00
3348;DHT22;1687;49.540;8.574;2023-12-04T04:32:39;-1.10;78.00
3348;DHT22;1687;49.540;8.574;2023-12-04T04:35:05;-1.00;78.30
3348;DHT22;1687;49.540;8.574;2023-12-04T04:37:31;-1.00;78.10
3348;DHT22;1687;49.540;8.574;2023-12-04T04:39:57;-1.10;77.90
3348;DHT22;1687;49.540;8.574;2023-12-04T04:42:22;-1.10;78.20
3348;DHT22;1687;49.540;8.574;2023-12-04T04:44:48;-1.10;77.90
3348;DHT22;1687;49.540;8.574;2023-12-04T04:47:14;-1.20;77.50
3348;DHT22;1687;49.540;8.574;2023-12-04T04:49:39;-1.30;77.70
3348;DHT22;1687;49.540;8.574;2023-12-04T04:52:07;-1.30;78.10
3348;DHT22;1687;49.540;8.574;2023-12-04T04:54:33;-1.30;78.00
3348;DHT22;1687;49.540;8.574;2023-12-04T04:56:58;-1.30;78.40
3348;DHT22;1687;49.540;8.574;2023-12-04T04:59:24;-1.30;78.30
3348;DHT22;1687;49.540;8.574;2023-12-04T05:01:50;-1.30;78.50
3348;DHT22;1687;49.540;8.574;2023-12-04T05:04:16;-1.20;78.70
3348;DHT22;1687;49.540;8.574;2023-12-04T05:06:41;-1.20;78.30
3348;DHT22;1687;49.540;8.574;2023-12-04T05:09:07;-1.20;78.40
3348;DHT22;1687;49.540;8.574;2023-12-04T05:11:33;-1.30;78.20
3348;DHT22;1687;49.540;8.574;2023-12-04T05:13:58;-1.40;77.70
3348;DHT22;1687;49.540;8.574;2023-12-04T05:16:24;-1.50;78.20
3348;DHT22;1687;49.540;8.574;2023-12-04T05:18:50;-1.60;77.90
3348;DHT22;1687;49.540;8.574;2023-12-04T05:21:15;-1.60;78.10
3348;DHT22;1687;49.540;8.574;2023-12-04T05:23:41;-1.60;78.40
3348;DHT22;1687;49.540;8.574;2023-12-04T05:26:07;-1.60;78.50
3348;DHT22;1687;49.540;8.574;2023-12-04T05:28:34;-1.60;78.10
3348;DHT22;1687;49.540;8.574;2023-12-04T05:31:00;-1.70;78.50
3348;DHT22;1687;49.540;8.574;2023-12-04T05:33:25;-1.60;78.70
3348;DHT22;1687;49.540;8.574;2023-12-04T05:35:52;-1.60;78.90
3348;DHT22;1687;49.540;8.574;2023-12-04T05:38:18;-1.60;78.80
3348;DHT22;1687;49.540;8.574;2023-12-04T05:40:44;-1.50;79.60
3348;DHT22;1687;49.540;8.574;2023-12-04T05:43:10;-1.40;79.30
3348;DHT22;1687;49.540;8.574;2023-12-04T05:45:35;-1.40;79.40
3348;DHT22;1687;49.540;8.574;2023-12-04T05:48:01;-1.40;79.20
3348;DHT22;1687;49.540;8.574;2023-12-04T05:50:27;-1.30;79.50
3348;DHT22;1687;49.540;8.574;2023-12-04T05:52:53;-1.30;79.20
3348;DHT22;1687;49.540;8.574;2023-12-04T05:55:18;-1.40;78.90
3348;DHT22;1687;49.540;8.574;2023-12-04T05:57:45;-1.50;79.00
3348;DHT22;1687;49.540;8.574;2023-12-04T06:00:11;-1.50;79.00
3348;DHT22;1687;49.540;8.574;2023-12-04T06:02:44;-1.50;79.40
3348;DHT22;1687;49.540;8.574;2023-12-04T06:05:10;-1.50;79.20
3348;DHT22;1687;49.540;8.574;2023-12-04T06:07:36;-1.50;79.70
3348;DHT22;1687;49.540;8.574;2023-12-04T06:10:03;-1.40;80.20
3348;DHT22;1687;49.540;8.574;2023-12-04T06:12:30;-1.40;80.00
3348;DHT22;1687;49.540;8.574;2023-12-04T06:14:56;-1.30;80.40
3348;DHT22;1687;49.540;8.574;2023-12-04T06:17:21;-1.30;80.20
3348;DHT22;1687;49.540;8.574;2023-12-04T06:19:47;-1.30;80.10
3348;DHT22;1687;49.540;8.574;2023-12-04T06:22:13;-1.30;80.40
3348;DHT22;1687;49.540;8.574;2023-12-04T06:24:39;-1.20;80.70
3348;DHT22;1687;49.540;8.574;2023-12-04T06:27:05;-1.10;81.10
3348;DHT22;1687;49.540;8.574;2023-12-04T06:29:34;-1.00;81.30
3348;DHT22;1687;49.540;8.574;2023-12-04T06:32:00;-1.00;81.40
3348;DHT22;1687;49.540;8.574;2023-12-04T06:34:26;-0.90;81.60
3348;DHT22;1687;49.540;8.574;2023-12-04T06:36:54;-0.80;81.50
3348;DHT22;1687;49.540;8.574;2023-12-04T06:39:20;-0.80;81.50
3348;DHT22;1687;49.540;8.574;2023-12-04T06:41:47;-0.70;81.80
3348;DHT22;1687;49.540;8.574;2023-12-04T06:44:14;-0.70;81.50
3348;DHT22;1687;49.540;8.574;2023-12-04T06:46:41;-0.60;81.90
3348;DHT22;1687;49.540;8.574;2023-12-04T06:49:11;-0.60;82.10
3348;DHT22;1687;49.540;8.574;2023-12-04T06:51:37;-0.50;82.40
3348;DHT22;1687;49.540;8.574;2023-12-04T06:54:02;-0.40;82.30
3348;DHT22;1687;49.540;8.574;2023-12-04T06:56:28;-0.40;82.70
3348;DHT22;1687;49.540;8.574;2023-12-04T06:58:54;-0.40;83.20
3348;DHT22;1687;49.540;8.574;2023-12-04T07:01:20;-0.30;82.50
3348;DHT22;1687;49.540;8.574;2023-12-04T07:03:47;-0.30;82.30
3348;DHT22;1687;49.540;8.574;2023-12-04T07:06:12;-0.40;82.00
3348;DHT22;1687;49.540;8.574;2023-12-04T07:08:40;-0.40;82.00
3348;DHT22;1687;49.540;8.574;2023-12-04T07:11:06;-0.50;82.30
3348;DHT22;1687;49.540;8.574;2023-12-04T07:13:33;-0.50;82.10
3348;DHT22;1687;49.540;8.574;2023-12-04T07:15:59;-0.50;82.30
3348;DHT22;1687;49.540;8.574;2023-12-04T07:18:25;-0.50;82.70
3348;DHT22;1687;49.540;8.574;2023-12-04T07:20:51;-0.50;82.80
3348;DHT22;1687;49.540;8.574;2023-12-04T07:23:17;-0.50;82.80
3348;DHT22;1687;49.540;8.574;2023-12-04T07:25:43;-0.50;83.20
3348;DHT22;1687;49.540;8.574;2023-12-04T07:28:08;-0.40;83.60
3348;DHT22;1687;49.540;8.574;2023-12-04T07:30:34;-0.40;83.20
3348;DHT22;1687;49.540;8.574;2023-12-04T07:33:00;-0.40;83.00
3348;DHT22;1687;49.540;8.574;2023-12-04T07:35:26;-0.40;83.20
3348;DHT22;1687;49.540;8.574;2023-12-04T07:37:52;-0.40;83.10
3348;DHT22;1687;49.540;8.574;2023-12-04T07:40:18;-0.50;82.60
3348;DHT22;1687;49.540;8.574;2023-12-04T07:42:43;-0.40;84.00
3348;DHT22;1687;49.540;8.574;2023-12-04T07:45:10;-0.40;84.80
3348;DHT22;1687;49.540;8.574;2023-12-04T07:47:36;-0.30;84.00
3348;DHT22;1687;49.540;8.574;2023-12-04T07:50:02;-0.20;84.10
3348;DHT22;1687;49.540;8.574;2023-12-04T07:52:27;-0.20;84.20
3348;DHT22;1687;49.540;8.574;2023-12-04T07:54:53;-0.10;84.60
3348;DHT22;1687;49.540;8.574;2023-12-04T07:57:19;-0.10;83.90
3348;DHT22;1687;49.540;8.574;2023-12-04T07:59:45;-0.10;84.10
3348;DHT22;1687;49.540;8.574;2023-12-04T08:02:10;-0.10;83.70
3348;DHT22;1687;49.540;8.574;2023-12-04T08:04:36;-0.20;84.00
3348;DHT22;1687;49.540;8.574;2023-12-04T08:07:02;-0.10;84.90
3348;DHT22;1687;49.540;8.574;2023-12-04T08:09:27;-0.10;84.40
3348;DHT22;1687;49.540;8.574;2023-12-04T08:11:53;-0.10;84.80
3348;DHT22;1687;49.540;8.574;2023-12-04T08:14:19;0.10;85.00
3348;DHT22;1687;49.540;8.574;2023-12-04T08:16:44;0.00;84.30
3348;DHT22;1687;49.540;8.574;2023-12-04T08:19:10;0.00;84.50
3348;DHT22;1687;49.540;8.574;2023-12-04T08:21:36;0.00;84.80
3348;DHT22;1687;49.540;8.574;2023-12-04T08:24:01;0.10;85.70
3348;DHT22;1687;49.540;8.574;2023-12-04T08:26:27;0.10;84.90
3348;DHT22;1687;49.540;8.574;2023-12-04T08:28:54;0.20;85.00
3348;DHT22;1687;49.540;8.574;2023-12-04T08:31:20;0.20;85.60
3348;DHT22;1687;49.540;8.574;2023-12-04T08:33:45;0.30;85.70
3348;DHT22;1687;49.540;8.574;2023-12-04T08:36:11;0.40;85.90
3348;DHT22;1687;49.540;8.574;2023-12-04T08:38:37;0.50;85.50
3348;DHT22;1687;49.540;8.574;2023-12-04T08:41:04;0.60;86.30
3348;DHT22;1687;49.540;8.574;2023-12-04T08:43:30;0.70;85.90
3348;DHT22;1687;49.540;8.574;2023-12-04T08:45:55;0.90;86.80
3348;DHT22;1687;49.540;8.574;2023-12-04T08:48:21;1.00;86.70
3348;DHT22;1687;49.540;8.574;2023-12-04T08:50:47;1.10;86.40
3348;DHT22;1687;49.540;8.574;2023-12-04T08:53:13;1.10;85.70
3348;DHT22;1687;49.540;8.574;2023-12-04T08:55:39;1.10;85.50
3348;DHT22;1687;49.540;8.574;2023-12-04T08:58:05;1.20;86.40
3348;DHT22;1687;49.540;8.574;2023-12-04T09:00:32;1.30;86.90
3348;DHT22;1687;49.540;8.574;2023-12-04T09:02:58;1.40;86.10
3348;DHT22;1687;49.540;8.574;2023-12-04T09:05:24;1.40;85.80
3348;DHT22;1687;49.540;8.574;2023-12-04T09:07:50;1.40;87.10
3348;DHT22;1687;49.540;8.574;2023-12-04T09:10:15;1.60;87.50
3348;DHT22;1687;49.540;8.574;2023-12-04T09:12:42;1.70;86.90
3348;DHT22;1687;49.540;8.574;2023-12-04T09:15:08;1.80;86.90
3348;DHT22;1687;49.540;8.574;2023-12-04T09:17:33;1.90;86.90
3348;DHT22;1687;49.540;8.574;2023-12-04T09:19:59;1.90;86.60
3348;DHT22;1687;49.540;8.574;2023-12-04T09:22:25;1.90;86.50
3348;DHT22;1687;49.540;8.574;2023-12-04T09:24:50;2.00;87.00
3348;DHT22;1687;49.540;8.574;2023-12-04T09:27:16;2.10;87.40
3348;DHT22;1687;49.540;8.574;2023-12-04T09:29:42;2.10;86.80
3348;DHT22;1687;49.540;8.574;2023-12-04T09:32:08;2.00;85.90
3348;DHT22;1687;49.540;8.574;2023-12-04T09:34:35;2.00;86.50
3348;DHT22;1687;49.540;8.574;2023-12-04T09:37:01;2.10;86.50
3348;DHT22;1687;49.540;8.574;2023-12-04T09:39:28;2.10;86.10
3348;DHT22;1687;49.540;8.574;2023-12-04T09:41:54;2.00;85.50
3348;DHT22;1687;49.540;8.574;2023-12-04T09:44:22;2.00;86.40
3348;DHT22;1687;49.540;8.574;2023-12-04T09:46:51;2.10;86.10
3348;DHT22;1687;49.540;8.574;2023-12-04T09:49:17;2.10;86.70
3348;DHT22;1687;49.540;8.574;2023-12-04T09:51:44;2.20;86.30
3348;DHT22;1687;49.540;8.574;2023-12-04T09:54:11;2.30;86.70
3348;DHT22;1687;49.540;8.574;2023-12-04T09:56:37;2.40;86.50
3348;DHT22;1687;49.540;8.574;2023-12-04T09:59:05;2.30;85.70
3348;DHT22;1687;49.540;8.574;2023-12-04T10:01:32;2.30;85.50
3348;DHT22;1687;49.540;8.574;2023-12-04T10:04:00;2.30;85.70
3348;DHT22;1687;49.540;8.574;2023-12-04T10:06:29;2.30;86.10
3348;DHT22;1687;49.540;8.574;2023-12-04T10:08:58;2.40;86.50
3348;DHT22;1687;49.540;8.574;2023-12-04T10:11:25;2.50;86.50
3348;DHT22;1687;49.540;8.574;2023-12-04T10:13:52;2.60;85.70
3348;DHT22;1687;49.540;8.574;2023-12-04T10:16:36;2.60;84.40
3348;DHT22;1687;49.540;8.574;2023-12-04T10:19:18;2.70;85.30
3348;DHT22;1687;49.540;8.574;2023-12-04T10:21:47;2.60;84.00
3348;DHT22;1687;49.540;8.574;2023-12-04T10:26:56;2.70;85.00
3348;DHT22;1687;49.540;8.574;2023-12-04T10:29:23;2.70;84.00
3348;DHT22;1687;49.540;8.574;2023-12-04T10:31:50;2.60;83.50
3348;DHT22;1687;49.540;8.574;2023-12-04T10:34:18;2.60;84.40
3348;DHT22;1687;49.540;8.574;2023-12-04T10:36:45;2.70;84.10
3348;DHT22;1687;49.540;8.574;2023-12-04T10:39:11;2.80;85.00
3348;DHT22;1687;49.540;8.574;2023-12-04T10:41:38;2.70;84.30
3348;DHT22;1687;49.540;8.574;2023-12-04T10:44:04;2.80;84.60
3348;DHT22;1687;49.540;8.574;2023-12-04T10:46:30;2.80;84.60
3348;DHT22;1687;49.540;8.574;2023-12-04T10:48:57;2.90;84.90
3348;DHT22;1687;49.540;8.574;2023-12-04T10:51:23;3.00;85.20
3348;DHT22;1687;49.540;8.574;2023-12-04T10:53:51;3.20;85.20
3348;DHT22;1687;49.540;8.574;2023-12-04T10:56:35;3.30;84.90
3348;DHT22;1687;49.540;8.574;2023-12-04T10:59:10;3.40;84.90
3348;DHT22;1687;49.540;8.574;2023-12-04T11:01:38;3.50;84.50
3348;DHT22;1687;49.540;8.574;2023-12-04T11:04:07;3.50;84.40
3348;DHT22;1687;49.540;8.574;2023-12-04T11:06:39;3.50;83.30
3348;DHT22;1687;49.540;8.574;2023-12-04T11:09:05;3.40;83.50
3348;DHT22;1687;49.540;8.574;2023-12-04T11:11:35;3.40;83.50
3348;DHT22;1687;49.540;8.574;2023-12-04T11:14:04;3.40;83.40
3348;DHT22;1687;49.540;8.574;2023-12-04T11:16:57;3.30;82.90
3348;DHT22;1687;49.540;8.574;2023-12-04T11:19:32;3.20;83.10
3348;DHT22;1687;49.540;8.574;2023-12-04T11:22:00;3.20;83.00
3348;DHT22;1687;49.540;8.574;2023-12-04T11:24:28;3.20;83.00
3348;DHT22;1687;49.540;8.574;2023-12-04T11:26:54;3.10;82.70
3348;DHT22;1687;49.540;8.574;2023-12-04T11:29:21;3.10;83.10
3348;DHT22;1687;49.540;8.574;2023-12-04T11:31:47;3.10;83.00
3348;DHT22;1687;49.540;8.574;2023-12-04T11:34:13;3.20;83.60
3348;DHT22;1687;49.540;8.574;2023-12-04T11:36:39;3.10;83.00
3348;DHT22;1687;49.540;8.574;2023-12-04T11:39:11;3.10;83.60
3348;DHT22;1687;49.540;8.574;2023-12-04T11:41:37;3.10;82.70
3348;DHT22;1687;49.540;8.574;2023-12-04T11:44:03;3.20;83.30
3348;DHT22;1687;49.540;8.574;2023-12-04T11:46:30;3.20;83.50
3348;DHT22;1687;49.540;8.574;2023-12-04T11:49:25;3.30;83.30
3348;DHT22;1687;49.540;8.574;2023-12-04T11:51:59;3.40;83.40
3348;DHT22;1687;49.540;8.574;2023-12-04T11:54:27;3.40;83.50
3348;DHT22;1687;49.540;8.574;2023-12-04T11:59:38;3.40;83.40
3348;DHT22;1687;49.540;8.574;2023-12-04T12:02:07;3.40;83.80
3348;DHT22;1687;49.540;8.574;2023-12-04T12:04:33;3.50;83.60
3348;DHT22;1687;49.540;8.574;2023-12-04T12:07:00;3.40;82.70
3348;DHT22;1687;49.540;8.574;2023-12-04T12:09:29;3.40;83.10
3348;DHT22;1687;49.540;8.574;2023-12-04T12:11:56;3.40;83.30
3348;DHT22;1687;49.540;8.574;2023-12-04T12:14:22;3.40;83.50
3348;DHT22;1687;49.540;8.574;2023-12-04T12:16:48;3.40;83.20
3348;DHT22;1687;49.540;8.574;2023-12-04T12:19:13;3.40;83.30
3348;DHT22;1687;49.540;8.574;2023-12-04T12:21:40;3.30;83.00
3348;DHT22;1687;49.540;8.574;2023-12-04T12:24:06;3.30;83.00
3348;DHT22;1687;49.540;8.574;2023-12-04T12:26:32;3.30;82.70
3348;DHT22;1687;49.540;8.574;2023-12-04T12:28:58;3.20;82.60
3348;DHT22;1687;49.540;8.574;2023-12-04T12:31:24;3.20;83.10
3348;DHT22;1687;49.540;8.574;2023-12-04T12:33:49;3.10;82.50
3348;DHT22;1687;49.540;8.574;2023-12-04T12:36:16;3.00;82.20
3348;DHT22;1687;49.540;8.574;2023-12-04T12:38:44;2.80;82.00
3348;DHT22;1687;49.540;8.574;2023-12-04T12:41:15;2.90;83.20
3348;DHT22;1687;49.540;8.574;2023-12-04T12:43:42;3.00;83.60
3348;DHT22;1687;49.540;8.574;2023-12-04T12:46:08;3.10;83.50
3348;DHT22;1687;49.540;8.574;2023-12-04T12:48:35;3.10;83.20
3348;DHT22;1687;49.540;8.574;2023-12-04T12:51:02;2.90;82.30
3348;DHT22;1687;49.540;8.574;2023-12-04T12:53:28;2.70;82.30
3348;DHT22;1687;49.540;8.574;2023-12-04T12:55:59;2.60;82.40
3348;DHT22;1687;49.540;8.574;2023-12-04T12:58:26;2.50;82.30
3348;DHT22;1687;49.540;8.574;2023-12-04T13:00:52;2.40;82.30
3348;DHT22;1687;49.540;8.574;2023-12-04T13:03:19;2.30;82.50
3348;DHT22;1687;49.540;8.574;2023-12-04T13:05:45;2.30;82.70
3348;DHT22;1687;49.540;8.574;2023-12-04T13:08:11;2.40;84.10
3348;DHT22;1687;49.540;8.574;2023-12-04T13:10:38;2.40;83.90
3348;DHT22;1687;49.540;8.574;2023-12-04T13:13:04;2.50;84.40
3348;DHT22;1687;49.540;8.574;2023-12-04T13:15:29;2.60;84.30
3348;DHT22;1687;49.540;8.574;2023-12-04T13:17:55;2.60;84.70
3348;DHT22;1687;49.540;8.574;2023-12-04T13:20:22;2.80;85.00
3348;DHT22;1687;49.540;8.574;2023-12-04T13:22:48;2.80;85.30
3348;DHT22;1687;49.540;8.574;2023-12-04T13:25:14;3.00;86.30
3348;DHT22;1687;49.540;8.574;2023-12-04T13:27:40;3.10;85.50
3348;DHT22;1687;49.540;8.574;2023-12-04T13:30:06;3.10;85.20
3348;DHT22;1687;49.540;8.574;2023-12-04T13:32:36;3.20;86.40
3348;DHT22;1687;49.540;8.574;2023-12-04T13:35:04;3.30;85.80
3348;DHT22;1687;49.540;8.574;2023-12-04T13:37:34;3.30;85.60
3348;DHT22;1687;49.540;8.574;2023-12-04T13:40:02;3.20;85.50
3348;DHT22;1687;49.540;8.574;2023-12-04T13:42:38;3.20;86.60
3348;DHT22;1687;49.540;8.574;2023-12-04T13:45:22;3.30;86.80
3348;DHT22;1687;49.540;8.574;2023-12-04T13:47:49;3.30;86.90
3348;DHT22;1687;49.540;8.574;2023-12-04T13:50:15;3.30;86.80
3348;DHT22;1687;49.540;8.574;2023-12-04T13:52:42;3.30;87.00
3348;DHT22;1687;49.540;8.574;2023-12-04T13:55:09;3.30;87.30
3348;DHT22;1687;49.540;8.574;2023-12-04T13:57:46;3.40;87.90
3348;DHT22;1687;49.540;8.574;2023-12-04T14:00:34;3.40;87.60
3348;DHT22;1687;49.540;8.574;2023-12-04T14:03:00;3.40;87.50
3348;DHT22;1687;49.540;8.574;2023-12-04T14:05:30;3.40;87.40
3348;DHT22;1687;49.540;8.574;2023-12-04T14:07:56;3.40;87.30
3348;DHT22;1687;49.540;8.574;2023-12-04T14:10:26;3.40;88.00
3348;DHT22;1687;49.540;8.574;2023-12-04T14:12:53;3.40;87.70
3348;DHT22;1687;49.540;8.574;2023-12-04T14:15:20;3.40;87.90
3348;DHT22;1687;49.540;8.574;2023-12-04T14:17:46;3.40;87.50
3348;DHT22;1687;49.540;8.574;2023-12-04T14:20:14;3.30;87.80
3348;DHT22;1687;49.540;8.574;2023-12-04T14:22:43;3.40;88.50
3348;DHT22;1687;49.540;8.574;2023-12-04T14:25:11;3.40;87.90
3348;DHT22;1687;49.540;8.574;2023-12-04T14:27:37;3.40;88.10
3348;DHT22;1687;49.540;8.574;2023-12-04T14:30:08;3.40;89.00
3348;DHT22;1687;49.540;8.574;2023-12-04T14:32:35;3.40;88.70
3348;DHT22;1687;49.540;8.574;2023-12-04T14:35:02;3.50;89.00
3348;DHT22;1687;49.540;8.574;2023-12-04T14:37:29;3.50;88.70
3348;DHT22;1687;49.540;8.574;2023-12-04T14:39:54;3.50;88.80
3348;DHT22;1687;49.540;8.574;2023-12-04T14:42:20;3.60;89.10
3348;DHT22;1687;49.540;8.574;2023-12-04T14:44:46;3.60;89.60
3348;DHT22;1687;49.540;8.574;2023-12-04T14:47:12;3.60;88.60
3348;DHT22;1687;49.540;8.574;2023-12-04T14:49:37;3.50;88.50
3348;DHT22;1687;49.540;8.574;2023-12-04T14:52:03;3.60;89.00
3348;DHT22;1687;49.540;8.574;2023-12-04T14:54:31;3.60;88.80
3348;DHT22;1687;49.540;8.574;2023-12-04T14:57:20;3.50;88.30
3348;DHT22;1687;49.540;8.574;2023-12-04T15:00:05;3.40;88.90
3348;DHT22;1687;49.540;8.574;2023-12-04T15:02:50;3.40;89.50
3348;DHT22;1687;49.540;8.574;2023-12-04T15:05:34;3.40;89.30
3348;DHT22;1687;49.540;8.574;2023-12-04T15:08:19;3.40;89.40
3348;DHT22;1687;49.540;8.574;2023-12-04T15:11:03;3.40;89.30
3348;DHT22;1687;49.540;8.574;2023-12-04T15:13:38;3.40;90.10
3348;DHT22;1687;49.540;8.574;2023-12-04T15:16:35;3.40;90.20
3348;DHT22;1687;49.540;8.574;2023-12-04T15:19:12;3.50;90.20
3348;DHT22;1687;49.540;8.574;2023-12-04T15:21:56;3.50;90.30
3348;DHT22;1687;49.540;8.574;2023-12-04T15:24:21;3.50;90.00
3348;DHT22;1687;49.540;8.574;2023-12-04T15:26:47;3.50;90.30
3348;DHT22;1687;49.540;8.574;2023-12-04T15:29:13;3.60;90.50
3348;DHT22;1687;49.540;8.574;2023-12-04T15:31:39;3.60;90.50
3348;DHT22;1687;49.540;8.574;2023-12-04T15:34:05;3.60;89.80
3348;DHT22;1687;49.540;8.574;2023-12-04T15:36:31;3.60;90.30
3348;DHT22;1687;49.540;8.574;2023-12-04T15:38:56;3.60;90.20
3348;DHT22;1687;49.540;8.574;2023-12-04T15:41:22;3.60;90.50
3348;DHT22;1687;49.540;8.574;2023-12-04T15:43:48;3.60;90.50
3348;DHT22;1687;49.540;8.574;2023-12-04T15:46:15;3.60;90.50
3348;DHT22;1687;49.540;8.574;2023-12-04T15:48:43;3.60;91.20
3348;DHT22;1687;49.540;8.574;2023-12-04T15:51:08;3.70;90.90
3348;DHT22;1687;49.540;8.574;2023-12-04T15:53:36;3.70;90.70
3348;DHT22;1687;49.540;8.574;2023-12-04T15:56:02;3.70;90.90
3348;DHT22;1687;49.540;8.574;2023-12-04T15:58:30;3.70;90.80
3348;DHT22;1687;49.540;8.574;2023-12-04T16:01:00;3.80;90.90
3348;DHT22;1687;49.540;8.574;2023-12-04T16:03:26;3.80;91.10
3348;DHT22;1687;49.540;8.574;2023-12-04T16:05:52;3.80;91.10
3348;DHT22;1687;49.540;8.574;2023-12-04T16:08:18;3.80;91.00
3348;DHT22;1687;49.540;8.574;2023-12-04T16:10:43;3.80;91.00
3348;DHT22;1687;49.540;8.574;2023-12-04T16:13:10;3.80;91.20
3348;DHT22;1687;49.540;8.574;2023-12-04T16:15:36;3.80;91.30